Kezdőlap
METAR-TAF:

METAR-TAF

Repülőterek :

Taylorville Municipal Airport

Taylorville, Illinois, Amerikai Egyesült Államok

földrajzi szélesség: 39-32-03N, földrajzi hosszúság: 089-19-40W, magasság: 190 m

Jelenlegi meteorológiai megfigyelések

A jelentés 28 perccel ezelõtt készült, 08:35 UTC
Déli szél 7 kt
Hőmérséklet 24°C
Páratartalom 94%
Légköri nyomás 1015 hPa
Látótávolság: 11.3 km
Szórványos felhőzet 6000 lábon
Szórványos felhőzet 7000 lábon
Szórványos felhőzet 12000 lábon

METAR: KTAZ 100835Z AUTO 18007KT 7SM SCT060 SCT070 SCT120 24/23 A2998 RMK AO2 LTG DSNT N T02350232

Idő: 04:03 (09:03 UTC)


TAF: hiányzik

Meteorológiai megfigyelések és előrejelzések több, mint 4000 repülőtéren (METAR és TAF jelentéseket).

A térképen piros és sárga pontok jelzik az elérhető meteorológiai állomásokat.

Mozgassa az egeret a pont fölött, hogy megjelenjen az állomás neve.

Azután kattintson az időjárási megfigyelések és előrejelzések megtekintéséhez.

A térkép megváltoztatása: kattintson a fekete keresztel jelölt zöld gombra ráközelítéshez, a vonallal jelölt zöld gombra távolításhoz, vagy a zöld nyilakra a szomszédos térképek eléréséhez.


METAR-TAF: